sensor_id;sensor_type;location;lat;lon;timestamp;pressure;altitude;pressure_sealevel;temperature;humidity
22389;BME280;11362;48.102;11.620;2023-06-22T00:00:53;95356.78;;;25.70;44.86
22389;BME280;11362;48.102;11.620;2023-06-22T00:03:21;95346.88;;;25.69;45.01
22389;BME280;11362;48.102;11.620;2023-06-22T00:05:47;95334.97;;;25.69;45.09
22389;BME280;11362;48.102;11.620;2023-06-22T00:08:13;95330.19;;;25.69;45.22
22389;BME280;11362;48.102;11.620;2023-06-22T00:10:39;95334.19;;;25.68;45.28
22389;BME280;11362;48.102;11.620;2023-06-22T00:13:06;95348.09;;;25.68;45.17
22389;BME280;11362;48.102;11.620;2023-06-22T00:15:31;95345.31;;;25.68;44.88
22389;BME280;11362;48.102;11.620;2023-06-22T00:17:56;95349.66;;;25.69;44.76
22389;BME280;11362;48.102;11.620;2023-06-22T00:20:22;95355.22;;;25.69;44.99
22389;BME280;11362;48.102;11.620;2023-06-22T00:22:47;95356.44;;;25.68;45.08
22389;BME280;11362;48.102;11.620;2023-06-22T00:25:12;95352.44;;;25.69;45.05
22389;BME280;11362;48.102;11.620;2023-06-22T00:27:38;95358.00;;;25.69;44.98
22389;BME280;11362;48.102;11.620;2023-06-22T00:30:03;95360.78;;;25.69;44.99
22389;BME280;11362;48.102;11.620;2023-06-22T00:32:29;95355.22;;;25.69;45.17
22389;BME280;11362;48.102;11.620;2023-06-22T00:34:54;95343.75;;;25.67;44.80
22389;BME280;11362;48.102;11.620;2023-06-22T00:37:19;95344.50;;;25.68;45.10
22389;BME280;11362;48.102;11.620;2023-06-22T00:39:45;95350.88;;;25.68;45.07
22389;BME280;11362;48.102;11.620;2023-06-22T00:42:10;95350.88;;;25.68;44.99
22389;BME280;11362;48.102;11.620;2023-06-22T00:44:36;95350.06;;;25.68;44.90
22389;BME280;11362;48.102;11.620;2023-06-22T00:47:02;95345.31;;;25.68;45.22
22389;BME280;11362;48.102;11.620;2023-06-22T00:49:28;95340.53;;;25.69;44.84
22389;BME280;11362;48.102;11.620;2023-06-22T00:51:54;95342.19;;;25.66;45.16
22389;BME280;11362;48.102;11.620;2023-06-22T00:54:20;95348.09;;;25.68;45.15
22389;BME280;11362;48.102;11.620;2023-06-22T00:56:45;95349.66;;;25.69;44.90
22389;BME280;11362;48.102;11.620;2023-06-22T00:59:11;95348.09;;;25.68;44.85
22389;BME280;11362;48.102;11.620;2023-06-22T01:01:36;95342.53;;;25.68;44.92
22389;BME280;11362;48.102;11.620;2023-06-22T01:04:02;95341.31;;;25.69;45.24
22389;BME280;11362;48.102;11.620;2023-06-22T01:06:33;95333.38;;;25.68;45.27
22389;BME280;11362;48.102;11.620;2023-06-22T01:09:06;95326.63;;;25.69;45.07
22389;BME280;11362;48.102;11.620;2023-06-22T01:11:38;95327.06;;;25.67;44.79
22389;BME280;11362;48.102;11.620;2023-06-22T01:14:11;95328.63;;;25.68;44.93
22389;BME280;11362;48.102;11.620;2023-06-22T01:16:41;95324.28;;;25.67;44.97
22389;BME280;11362;48.102;11.620;2023-06-22T01:19:35;95317.50;;;25.68;44.88
22389;BME280;11362;48.102;11.620;2023-06-22T01:22:05;95316.69;;;25.68;44.90
22389;BME280;11362;48.102;11.620;2023-06-22T01:27:32;95316.69;;;25.68;45.26
22389;BME280;11362;48.102;11.620;2023-06-22T01:29:59;95313.56;;;25.66;45.09
22389;BME280;11362;48.102;11.620;2023-06-22T01:32:24;95309.22;;;25.65;45.13
22389;BME280;11362;48.102;11.620;2023-06-22T01:34:50;95307.56;;;25.67;45.10
22389;BME280;11362;48.102;11.620;2023-06-22T01:37:16;95297.66;;;25.66;45.22
22389;BME280;11362;48.102;11.620;2023-06-22T01:39:42;95301.22;;;25.67;44.95
22389;BME280;11362;48.102;11.620;2023-06-22T01:42:07;95298.44;;;25.67;44.85
22389;BME280;11362;48.102;11.620;2023-06-22T01:44:34;95292.09;;;25.66;45.24
22389;BME280;11362;48.102;11.620;2023-06-22T01:46:59;95293.66;;;25.67;45.25
22389;BME280;11362;48.102;11.620;2023-06-22T01:49:25;95289.31;;;25.66;45.04
22389;BME280;11362;48.102;11.620;2023-06-22T01:51:50;95288.09;;;25.67;44.81
22389;BME280;11362;48.102;11.620;2023-06-22T01:54:16;95282.53;;;25.67;44.87
22389;BME280;11362;48.102;11.620;2023-06-22T01:56:41;95284.53;;;25.67;45.07
22389;BME280;11362;48.102;11.620;2023-06-22T02:01:43;95278.19;;;25.66;44.94
22389;BME280;11362;48.102;11.620;2023-06-22T02:04:13;95286.53;;;25.66;45.01
22389;BME280;11362;48.102;11.620;2023-06-22T02:06:44;95284.59;;;25.63;45.13
22389;BME280;11362;48.102;11.620;2023-06-22T02:09:15;95284.97;;;25.65;45.09
22389;BME280;11362;48.102;11.620;2023-06-22T02:11:44;95286.16;;;25.64;45.09
22389;BME280;11362;48.102;11.620;2023-06-22T02:14:11;95282.19;;;25.65;45.18
22389;BME280;11362;48.102;11.620;2023-06-22T02:16:38;95293.31;;;25.65;44.90
22389;BME280;11362;48.102;11.620;2023-06-22T02:19:03;95294.50;;;25.64;45.00
22389;BME280;11362;48.102;11.620;2023-06-22T02:21:29;95295.31;;;25.65;44.72
22389;BME280;11362;48.102;11.620;2023-06-22T02:23:55;95288.94;;;25.64;45.03
22389;BME280;11362;48.102;11.620;2023-06-22T02:26:20;95294.50;;;25.64;45.17
22389;BME280;11362;48.102;11.620;2023-06-22T02:28:45;95298.09;;;25.65;44.82
22389;BME280;11362;48.102;11.620;2023-06-22T02:31:11;95299.31;;;25.64;44.88
22389;BME280;11362;48.102;11.620;2023-06-22T02:33:36;95297.28;;;25.64;45.13
22389;BME280;11362;48.102;11.620;2023-06-22T02:36:01;95299.31;;;25.64;44.83
22389;BME280;11362;48.102;11.620;2023-06-22T02:38:27;95311.19;;;25.64;45.18
22389;BME280;11362;48.102;11.620;2023-06-22T02:40:52;95311.19;;;25.64;44.90
22389;BME280;11362;48.102;11.620;2023-06-22T02:43:17;95316.75;;;25.64;45.20
22389;BME280;11362;48.102;11.620;2023-06-22T02:45:43;95319.53;;;25.64;44.81
22389;BME280;11362;48.102;11.620;2023-06-22T02:48:08;95323.94;;;25.65;45.27
22389;BME280;11362;48.102;11.620;2023-06-22T02:50:33;95329.91;;;25.64;45.23
22389;BME280;11362;48.102;11.620;2023-06-22T02:52:59;95334.25;;;25.65;45.20
22389;BME280;11362;48.102;11.620;2023-06-22T02:55:24;95327.13;;;25.64;45.13
22389;BME280;11362;48.102;11.620;2023-06-22T02:57:49;95322.78;;;25.63;45.00
22389;BME280;11362;48.102;11.620;2023-06-22T03:00:15;95320.75;;;25.63;45.04
22389;BME280;11362;48.102;11.620;2023-06-22T03:02:40;95320.75;;;25.63;45.10
22389;BME280;11362;48.102;11.620;2023-06-22T03:05:05;95318.78;;;25.64;45.30
22389;BME280;11362;48.102;11.620;2023-06-22T03:07:31;95315.19;;;25.63;45.00
22389;BME280;11362;48.102;11.620;2023-06-22T03:09:56;95312.41;;;25.63;45.28
22389;BME280;11362;48.102;11.620;2023-06-22T03:12:21;95309.63;;;25.63;45.00
22389;BME280;11362;48.102;11.620;2023-06-22T03:14:46;95308.41;;;25.64;45.22
22389;BME280;11362;48.102;11.620;2023-06-22T03:17:12;95315.19;;;25.63;44.92
22389;BME280;11362;48.102;11.620;2023-06-22T03:19:37;95306.50;;;25.61;44.95
22389;BME280;11362;48.102;11.620;2023-06-22T03:22:03;95313.22;;;25.64;45.37
22389;BME280;11362;48.102;11.620;2023-06-22T03:24:28;95312.41;;;25.63;45.06
22389;BME280;11362;48.102;11.620;2023-06-22T03:26:53;95312.41;;;25.63;45.27
22389;BME280;11362;48.102;11.620;2023-06-22T03:29:19;95309.28;;;25.61;44.98
22389;BME280;11362;48.102;11.620;2023-06-22T03:31:44;95299.72;;;25.62;45.34
22389;BME280;11362;48.102;11.620;2023-06-22T03:34:09;95308.88;;;25.63;45.10
22389;BME280;11362;48.102;11.620;2023-06-22T03:36:34;95308.88;;;25.63;45.31
22389;BME280;11362;48.102;11.620;2023-06-22T03:39:00;95304.53;;;25.62;45.24
22389;BME280;11362;48.102;11.620;2023-06-22T03:41:25;95312.06;;;25.61;44.99
22389;BME280;11362;48.102;11.620;2023-06-22T03:43:50;95308.88;;;25.63;45.02
22389;BME280;11362;48.102;11.620;2023-06-22T03:46:16;95308.06;;;25.62;45.02
22389;BME280;11362;48.102;11.620;2023-06-22T03:48:41;95310.84;;;25.62;45.18
22389;BME280;11362;48.102;11.620;2023-06-22T03:51:06;95313.63;;;25.62;45.28
22389;BME280;11362;48.102;11.620;2023-06-22T03:53:31;95305.28;;;25.62;45.39
22389;BME280;11362;48.102;11.620;2023-06-22T03:55:57;95315.19;;;25.63;45.27
22389;BME280;11362;48.102;11.620;2023-06-22T03:58:22;95308.06;;;25.62;44.98
22389;BME280;11362;48.102;11.620;2023-06-22T04:00:49;95311.66;;;25.63;45.13
22389;BME280;11362;48.102;11.620;2023-06-22T04:03:15;95310.44;;;25.64;45.27
22389;BME280;11362;48.102;11.620;2023-06-22T04:05:41;95319.19;;;25.62;45.30
22389;BME280;11362;48.102;11.620;2023-06-22T04:08:07;95321.63;;;25.60;45.05
22389;BME280;11362;48.102;11.620;2023-06-22T04:10:32;95331.91;;;25.63;45.33
22389;BME280;11362;48.102;11.620;2023-06-22T04:12:58;95334.69;;;25.63;45.11
22389;BME280;11362;48.102;11.620;2023-06-22T04:15:23;95332.69;;;25.64;45.01
22389;BME280;11362;48.102;11.620;2023-06-22T04:17:48;95326.31;;;25.63;45.13
22389;BME280;11362;48.102;11.620;2023-06-22T04:20:14;95320.75;;;25.63;44.91
22389;BME280;11362;48.102;11.620;2023-06-22T04:22:39;95321.56;;;25.64;45.16
22389;BME280;11362;48.102;11.620;2023-06-22T04:25:05;95316.75;;;25.64;45.07
22389;BME280;11362;48.102;11.620;2023-06-22T04:27:31;95316.75;;;25.64;45.43
22389;BME280;11362;48.102;11.620;2023-06-22T04:29:57;95316.75;;;25.64;45.39
22389;BME280;11362;48.102;11.620;2023-06-22T04:32:22;95311.19;;;25.64;45.06
22389;BME280;11362;48.102;11.620;2023-06-22T04:34:47;95322.31;;;25.64;45.53
22389;BME280;11362;48.102;11.620;2023-06-22T04:37:12;95309.63;;;25.63;45.07
22389;BME280;11362;48.102;11.620;2023-06-22T04:39:38;95314.78;;;25.65;45.20
22389;BME280;11362;48.102;11.620;2023-06-22T04:42:03;95322.31;;;25.64;45.37
22389;BME280;11362;48.102;11.620;2023-06-22T04:44:29;95317.56;;;25.65;45.58
22389;BME280;11362;48.102;11.620;2023-06-22T04:46:56;95323.13;;;25.65;45.22
22389;BME280;11362;48.102;11.620;2023-06-22T04:49:21;95317.56;;;25.65;45.58
22389;BME280;11362;48.102;11.620;2023-06-22T04:51:47;95316.75;;;25.64;45.51
22389;BME280;11362;48.102;11.620;2023-06-22T04:54:12;95312.78;;;25.65;45.30
22389;BME280;11362;48.102;11.620;2023-06-22T04:56:37;95311.19;;;25.64;45.26
22389;BME280;11362;48.102;11.620;2023-06-22T04:59:03;95311.19;;;25.64;45.41
22389;BME280;11362;48.102;11.620;2023-06-22T05:01:28;95311.19;;;25.64;45.38
22389;BME280;11362;48.102;11.620;2023-06-22T05:03:54;95305.28;;;25.62;45.47
22389;BME280;11362;48.102;11.620;2023-06-22T05:06:19;95304.88;;;25.64;45.62
22389;BME280;11362;48.102;11.620;2023-06-22T05:08:44;95301.28;;;25.63;45.32
22389;BME280;11362;48.102;11.620;2023-06-22T05:11:10;95290.97;;;25.64;45.63
22389;BME280;11362;48.102;11.620;2023-06-22T05:13:35;95299.31;;;25.64;45.47
22389;BME280;11362;48.102;11.620;2023-06-22T05:16:00;95297.75;;;25.63;45.70
22389;BME280;11362;48.102;11.620;2023-06-22T05:18:25;95298.09;;;25.65;45.89
22389;BME280;11362;48.102;11.620;2023-06-22T05:20:51;95285.41;;;25.64;45.73
22389;BME280;11362;48.102;11.620;2023-06-22T05:23:16;95293.75;;;25.64;45.73
22389;BME280;11362;48.102;11.620;2023-06-22T05:25:41;95292.53;;;25.65;45.72
22389;BME280;11362;48.102;11.620;2023-06-22T05:28:06;95296.09;;;25.65;45.49
22389;BME280;11362;48.102;11.620;2023-06-22T05:30:32;95296.44;;;25.67;45.71
22389;BME280;11362;48.102;11.620;2023-06-22T05:32:57;95297.66;;;25.66;45.48
22389;BME280;11362;48.102;11.620;2023-06-22T05:35:22;95291.66;;;25.68;45.79
22389;BME280;11362;48.102;11.620;2023-06-22T05:37:48;95286.53;;;25.66;45.76
22389;BME280;11362;48.102;11.620;2023-06-22T05:40:13;95288.09;;;25.67;45.40
22389;BME280;11362;48.102;11.620;2023-06-22T05:42:38;95290.53;;;25.65;45.78
22389;BME280;11362;48.102;11.620;2023-06-22T05:45:04;95275.03;;;25.64;45.60
22389;BME280;11362;48.102;11.620;2023-06-22T05:47:29;95292.09;;;25.66;45.78
22389;BME280;11362;48.102;11.620;2023-06-22T05:49:55;95289.31;;;25.66;45.56
22389;BME280;11362;48.102;11.620;2023-06-22T05:52:20;95289.31;;;25.66;45.53
22389;BME280;11362;48.102;11.620;2023-06-22T05:54:45;95288.88;;;25.68;45.93
22389;BME280;11362;48.102;11.620;2023-06-22T05:57:10;95288.88;;;25.68;45.52
22389;BME280;11362;48.102;11.620;2023-06-22T05:59:36;95294.44;;;25.68;45.54
22389;BME280;11362;48.102;11.620;2023-06-22T06:02:01;95302.34;;;25.69;45.77
22389;BME280;11362;48.102;11.620;2023-06-22T06:04:26;95294.44;;;25.68;45.81
22389;BME280;11362;48.102;11.620;2023-06-22T06:06:52;95303.22;;;25.66;45.53
22389;BME280;11362;48.102;11.620;2023-06-22T06:09:17;95299.22;;;25.67;45.69
22389;BME280;11362;48.102;11.620;2023-06-22T06:11:42;95300.78;;;25.68;45.51
22389;BME280;11362;48.102;11.620;2023-06-22T06:14:08;95289.31;;;25.66;45.89
22389;BME280;11362;48.102;11.620;2023-06-22T06:16:33;95300.78;;;25.68;45.98
22389;BME280;11362;48.102;11.620;2023-06-22T06:18:58;95292.44;;;25.68;45.28
22389;BME280;11362;48.102;11.620;2023-06-22T06:21:24;95282.13;;;25.69;45.75
22389;BME280;11362;48.102;11.620;2023-06-22T06:23:49;95280.53;;;25.68;45.71
22389;BME280;11362;48.102;11.620;2023-06-22T06:26:14;95272.97;;;25.68;45.62
22389;BME280;11362;48.102;11.620;2023-06-22T06:28:40;95272.97;;;25.68;45.54
22389;BME280;11362;48.102;11.620;2023-06-22T06:31:05;95268.63;;;25.67;45.68
22389;BME280;11362;48.102;11.620;2023-06-22T06:33:30;95273.41;;;25.67;45.88
22389;BME280;11362;48.102;11.620;2023-06-22T06:35:56;95272.97;;;25.68;45.73
22389;BME280;11362;48.102;11.620;2023-06-22T06:38:21;95271.75;;;25.69;45.66
22389;BME280;11362;48.102;11.620;2023-06-22T06:40:46;95268.22;;;25.69;45.69
22389;BME280;11362;48.102;11.620;2023-06-22T06:43:12;95268.22;;;25.69;45.96
22389;BME280;11362;48.102;11.620;2023-06-22T06:45:37;95262.66;;;25.69;45.53
22389;BME280;11362;48.102;11.620;2023-06-22T06:48:02;95265.44;;;25.69;45.81
22389;BME280;11362;48.102;11.620;2023-06-22T06:50:28;95268.22;;;25.69;45.73
22389;BME280;11362;48.102;11.620;2023-06-22T06:52:53;95274.53;;;25.69;46.04
22389;BME280;11362;48.102;11.620;2023-06-22T06:55:18;95263.41;;;25.69;46.05
22389;BME280;11362;48.102;11.620;2023-06-22T06:57:44;95262.28;;;25.67;45.78
22389;BME280;11362;48.102;11.620;2023-06-22T07:00:13;95268.22;;;25.69;45.91
22389;BME280;11362;48.102;11.620;2023-06-22T07:02:42;95274.53;;;25.69;45.83
22389;BME280;11362;48.102;11.620;2023-06-22T07:05:09;95266.63;;;25.68;45.77
22389;BME280;11362;48.102;11.620;2023-06-22T07:07:34;95267.84;;;25.67;45.87
22389;BME280;11362;48.102;11.620;2023-06-22T07:09:59;95264.63;;;25.68;45.99
22389;BME280;11362;48.102;11.620;2023-06-22T07:12:25;95271.41;;;25.67;45.92
22389;BME280;11362;48.102;11.620;2023-06-22T07:14:52;95270.19;;;25.68;45.96
22389;BME280;11362;48.102;11.620;2023-06-22T07:17:17;95270.19;;;25.68;45.99
22389;BME280;11362;48.102;11.620;2023-06-22T07:19:42;95262.97;;;25.71;46.07
22389;BME280;11362;48.102;11.620;2023-06-22T07:22:08;95264.97;;;25.70;45.98
22389;BME280;11362;48.102;11.620;2023-06-22T07:24:33;95263.41;;;25.69;45.98
22389;BME280;11362;48.102;11.620;2023-06-22T07:26:58;95263.41;;;25.69;45.92
22389;BME280;11362;48.102;11.620;2023-06-22T07:29:24;95262.19;;;25.70;46.09
22389;BME280;11362;48.102;11.620;2023-06-22T07:31:50;95257.41;;;25.71;46.00
22389;BME280;11362;48.102;11.620;2023-06-22T07:34:17;95253.84;;;25.70;45.94
22389;BME280;11362;48.102;11.620;2023-06-22T07:36:43;95248.28;;;25.70;46.05
22389;BME280;11362;48.102;11.620;2023-06-22T07:39:08;95244.28;;;25.71;45.80
22389;BME280;11362;48.102;11.620;2023-06-22T07:41:34;95235.94;;;25.71;46.17
22389;BME280;11362;48.102;11.620;2023-06-22T07:43:59;95240.31;;;25.72;46.07
22389;BME280;11362;48.102;11.620;2023-06-22T07:46:25;95232.38;;;25.71;45.99
22389;BME280;11362;48.102;11.620;2023-06-22T07:48:50;95230.38;;;25.71;45.67
22389;BME280;11362;48.102;11.620;2023-06-22T07:51:15;95227.59;;;25.71;45.74
22389;BME280;11362;48.102;11.620;2023-06-22T07:53:42;95225.59;;;25.72;45.73
22389;BME280;11362;48.102;11.620;2023-06-22T07:56:10;95230.38;;;25.71;45.72
22389;BME280;11362;48.102;11.620;2023-06-22T07:58:35;95228.03;;;25.70;45.85
22389;BME280;11362;48.102;11.620;2023-06-22T08:01:01;95229.19;;;25.72;45.56
22389;BME280;11362;48.102;11.620;2023-06-22T08:03:26;95235.94;;;25.71;45.77
22389;BME280;11362;48.102;11.620;2023-06-22T08:05:51;95232.38;;;25.71;45.97
22389;BME280;11362;48.102;11.620;2023-06-22T08:08:17;95239.50;;;25.72;45.61
22389;BME280;11362;48.102;11.620;2023-06-22T08:10:42;95239.94;;;25.70;45.77
22389;BME280;11362;48.102;11.620;2023-06-22T08:13:08;95240.31;;;25.72;45.69
22389;BME280;11362;48.102;11.620;2023-06-22T08:15:33;95233.94;;;25.72;45.89
22389;BME280;11362;48.102;11.620;2023-06-22T08:17:58;95229.19;;;25.72;45.78
22389;BME280;11362;48.102;11.620;2023-06-22T08:20:24;95229.94;;;25.73;46.00
22389;BME280;11362;48.102;11.620;2023-06-22T08:22:49;95222.03;;;25.71;45.92
22389;BME280;11362;48.102;11.620;2023-06-22T08:25:14;95229.94;;;25.73;45.73
22389;BME280;11362;48.102;11.620;2023-06-22T08:27:40;95229.94;;;25.73;45.88
22389;BME280;11362;48.102;11.620;2023-06-22T08:30:07;95225.94;;;25.74;45.97
22389;BME280;11362;48.102;11.620;2023-06-22T08:32:32;95213.25;;;25.73;45.85
22389;BME280;11362;48.102;11.620;2023-06-22T08:34:57;95216.03;;;25.73;45.94
22389;BME280;11362;48.102;11.620;2023-06-22T08:37:23;95227.16;;;25.73;45.98
22389;BME280;11362;48.102;11.620;2023-06-22T08:39:48;95224.38;;;25.73;45.82
22389;BME280;11362;48.102;11.620;2023-06-22T08:42:14;95219.59;;;25.73;46.07
22389;BME280;11362;48.102;11.620;2023-06-22T08:44:39;95213.25;;;25.73;45.96
22389;BME280;11362;48.102;11.620;2023-06-22T08:47:04;95214.03;;;25.73;46.12
22389;BME280;11362;48.102;11.620;2023-06-22T08:49:29;95219.59;;;25.73;45.95
22389;BME280;11362;48.102;11.620;2023-06-22T08:51:55;95214.81;;;25.74;45.78
22389;BME280;11362;48.102;11.620;2023-06-22T08:54:20;95218.72;;;25.76;45.98
22389;BME280;11362;48.102;11.620;2023-06-22T08:56:45;95215.59;;;25.74;45.84
22389;BME280;11362;48.102;11.620;2023-06-22T08:59:11;95215.59;;;25.74;45.99
22389;BME280;11362;48.102;11.620;2023-06-22T09:01:36;95217.16;;;25.75;45.91
22389;BME280;11362;48.102;11.620;2023-06-22T09:04:01;95209.25;;;25.74;46.05
22389;BME280;11362;48.102;11.620;2023-06-22T09:06:26;95217.16;;;25.75;45.89
22389;BME280;11362;48.102;11.620;2023-06-22T09:08:52;95210.03;;;25.74;46.06
22389;BME280;11362;48.102;11.620;2023-06-22T09:11:17;95206.03;;;25.75;46.14
22389;BME280;11362;48.102;11.620;2023-06-22T09:13:42;95206.84;;;25.76;46.24
22389;BME280;11362;48.102;11.620;2023-06-22T09:16:08;95211.59;;;25.75;45.89
22389;BME280;11362;48.102;11.620;2023-06-22T09:18:36;95210.81;;;25.75;45.93
22389;BME280;11362;48.102;11.620;2023-06-22T09:21:02;95203.69;;;25.74;46.18
22389;BME280;11362;48.102;11.620;2023-06-22T09:23:27;95202.03;;;25.76;45.97
22389;BME280;11362;48.102;11.620;2023-06-22T09:25:52;95209.16;;;25.77;45.89
22389;BME280;11362;48.102;11.620;2023-06-22T09:28:18;95205.63;;;25.77;46.15
22389;BME280;11362;48.102;11.620;2023-06-22T09:30:43;95202.84;;;25.77;45.90
22389;BME280;11362;48.102;11.620;2023-06-22T09:33:08;95196.47;;;25.76;45.77
22389;BME280;11362;48.102;11.620;2023-06-22T09:35:34;95192.47;;;25.77;46.03
22389;BME280;11362;48.102;11.620;2023-06-22T09:37:59;95192.94;;;25.76;45.86
22389;BME280;11362;48.102;11.620;2023-06-22T09:40:24;95194.84;;;25.79;46.12
22389;BME280;11362;48.102;11.620;2023-06-22T09:42:51;95203.19;;;25.79;46.00
22389;BME280;11362;48.102;11.620;2023-06-22T09:45:16;95190.81;;;25.80;46.06
22389;BME280;11362;48.102;11.620;2023-06-22T09:47:41;95184.50;;;25.79;45.92
22389;BME280;11362;48.102;11.620;2023-06-22T09:50:07;95192.03;;;25.79;45.79
22389;BME280;11362;48.102;11.620;2023-06-22T09:52:32;95197.19;;;25.80;45.89
22389;BME280;11362;48.102;11.620;2023-06-22T09:54:57;95190.06;;;25.79;45.89
22389;BME280;11362;48.102;11.620;2023-06-22T09:57:23;95184.50;;;25.79;45.95
22389;BME280;11362;48.102;11.620;2023-06-22T09:59:48;95180.91;;;25.79;46.18
22389;BME280;11362;48.102;11.620;2023-06-22T10:02:13;95180.50;;;25.80;46.18
22389;BME280;11362;48.102;11.620;2023-06-22T10:04:39;95174.13;;;25.80;45.93
22389;BME280;11362;48.102;11.620;2023-06-22T10:07:04;95167.81;;;25.79;46.15
22389;BME280;11362;48.102;11.620;2023-06-22T10:09:30;95176.50;;;25.81;46.01
22389;BME280;11362;48.102;11.620;2023-06-22T10:11:55;95174.47;;;25.82;46.36
22389;BME280;11362;48.102;11.620;2023-06-22T10:14:20;95163.34;;;25.82;46.07
22389;BME280;11362;48.102;11.620;2023-06-22T10:16:45;95163.78;;;25.80;45.84
22389;BME280;11362;48.102;11.620;2023-06-22T10:19:11;95157.00;;;25.81;46.11
22389;BME280;11362;48.102;11.620;2023-06-22T10:21:36;95161.34;;;25.82;45.76
22389;BME280;11362;48.102;11.620;2023-06-22T10:24:02;95159.00;;;25.81;46.21
22389;BME280;11362;48.102;11.620;2023-06-22T10:26:27;95157.00;;;25.81;46.17
22389;BME280;11362;48.102;11.620;2023-06-22T10:28:52;95148.25;;;25.83;46.02
22389;BME280;11362;48.102;11.620;2023-06-22T10:31:18;95158.56;;;25.82;45.77
22389;BME280;11362;48.102;11.620;2023-06-22T10:33:43;95151.03;;;25.83;46.28
22389;BME280;11362;48.102;11.620;2023-06-22T10:36:08;95151.03;;;25.83;46.02
22389;BME280;11362;48.102;11.620;2023-06-22T10:38:34;95151.78;;;25.83;45.81
22389;BME280;11362;48.102;11.620;2023-06-22T10:40:59;95147.78;;;25.84;45.92
22389;BME280;11362;48.102;11.620;2023-06-22T10:43:24;95139.88;;;25.83;46.21
22389;BME280;11362;48.102;11.620;2023-06-22T10:45:49;95132.31;;;25.83;46.33
22389;BME280;11362;48.102;11.620;2023-06-22T10:48:15;95136.22;;;25.86;46.17
22389;BME280;11362;48.102;11.620;2023-06-22T10:50:40;95131.88;;;25.85;46.11
22389;BME280;11362;48.102;11.620;2023-06-22T10:53:05;95130.66;;;25.86;45.86
22389;BME280;11362;48.102;11.620;2023-06-22T10:55:31;95134.22;;;25.86;45.99
22389;BME280;11362;48.102;11.620;2023-06-22T10:57:56;95131.09;;;25.84;46.02
22389;BME280;11362;48.102;11.620;2023-06-22T11:00:21;95128.22;;;25.88;45.98
22389;BME280;11362;48.102;11.620;2023-06-22T11:02:47;95131.44;;;25.86;46.03
22389;BME280;11362;48.102;11.620;2023-06-22T11:05:12;95116.31;;;25.87;46.15
22389;BME280;11362;48.102;11.620;2023-06-22T11:07:41;95123.88;;;25.87;45.97
22389;BME280;11362;48.102;11.620;2023-06-22T11:10:07;95121.47;;;25.89;46.12
22389;BME280;11362;48.102;11.620;2023-06-22T11:12:32;95127.44;;;25.87;46.11
22389;BME280;11362;48.102;11.620;2023-06-22T11:14:57;95121.09;;;25.87;46.00
22389;BME280;11362;48.102;11.620;2023-06-22T11:17:23;95119.09;;;25.87;46.15
22389;BME280;11362;48.102;11.620;2023-06-22T11:19:48;95125.44;;;25.88;45.89
22389;BME280;11362;48.102;11.620;2023-06-22T11:22:13;95117.91;;;25.88;45.95
22389;BME280;11362;48.102;11.620;2023-06-22T11:24:38;95119.88;;;25.88;45.84
22389;BME280;11362;48.102;11.620;2023-06-22T11:27:04;95113.53;;;25.87;46.15
22389;BME280;11362;48.102;11.620;2023-06-22T11:29:29;95117.91;;;25.88;45.94
22389;BME280;11362;48.102;11.620;2023-06-22T11:31:55;95112.34;;;25.88;45.85
22389;BME280;11362;48.102;11.620;2023-06-22T11:34:20;95116.31;;;25.87;46.04
22389;BME280;11362;48.102;11.620;2023-06-22T11:36:45;95114.69;;;25.90;45.76
22389;BME280;11362;48.102;11.620;2023-06-22T11:39:11;95102.78;;;25.89;46.29
22389;BME280;11362;48.102;11.620;2023-06-22T11:41:36;95100.78;;;25.90;45.96
22389;BME280;11362;48.102;11.620;2023-06-22T11:44:01;95095.22;;;25.90;45.84
22389;BME280;11362;48.102;11.620;2023-06-22T11:46:27;95096.78;;;25.91;45.76
22389;BME280;11362;48.102;11.620;2023-06-22T11:48:52;95096.78;;;25.91;45.67
22389;BME280;11362;48.102;11.620;2023-06-22T11:51:17;95087.22;;;25.92;46.09
22389;BME280;11362;48.102;11.620;2023-06-22T11:53:42;95090.75;;;25.92;46.12
22389;BME280;11362;48.102;11.620;2023-06-22T11:56:08;95092.31;;;25.93;45.89
22389;BME280;11362;48.102;11.620;2023-06-22T11:58:33;95089.53;;;25.93;46.13
22389;BME280;11362;48.102;11.620;2023-06-22T12:00:58;95092.69;;;25.95;45.74
22389;BME280;11362;48.102;11.620;2023-06-22T12:03:24;95081.97;;;25.94;45.82
22389;BME280;11362;48.102;11.620;2023-06-22T12:05:50;95082.78;;;25.94;45.77
22389;BME280;11362;48.102;11.620;2023-06-22T12:08:15;95076.75;;;25.96;45.77
22389;BME280;11362;48.102;11.620;2023-06-22T12:10:41;95078.41;;;25.93;45.98
22389;BME280;11362;48.102;11.620;2023-06-22T12:13:06;95074.41;;;25.94;45.96
22389;BME280;11362;48.102;11.620;2023-06-22T12:15:31;95069.19;;;25.96;45.92
22389;BME280;11362;48.102;11.620;2023-06-22T12:17:57;95069.63;;;25.95;45.74
22389;BME280;11362;48.102;11.620;2023-06-22T12:20:22;95065.19;;;25.97;45.75
22389;BME280;11362;48.102;11.620;2023-06-22T12:22:47;95056.03;;;25.97;46.14
22389;BME280;11362;48.102;11.620;2023-06-22T12:25:13;95052.81;;;25.98;46.10
22389;BME280;11362;48.102;11.620;2023-06-22T12:27:38;95051.28;;;25.97;45.73
22389;BME280;11362;48.102;11.620;2023-06-22T12:30:04;95052.81;;;25.98;46.17
22389;BME280;11362;48.102;11.620;2023-06-22T12:32:29;95046.03;;;25.99;46.27
22389;BME280;11362;48.102;11.620;2023-06-22T12:34:55;95044.81;;;26.00;45.72
22389;BME280;11362;48.102;11.620;2023-06-22T12:37:20;95046.03;;;25.99;45.89
22389;BME280;11362;48.102;11.620;2023-06-22T12:39:46;95028.13;;;26.00;45.86
22389;BME280;11362;48.102;11.620;2023-06-22T12:42:11;95028.13;;;26.00;46.16
22389;BME280;11362;48.102;11.620;2023-06-22T12:44:38;95029.69;;;26.01;45.98
22389;BME280;11362;48.102;11.620;2023-06-22T12:47:04;95033.69;;;26.00;46.06